• Join FlightAware (Why Join?)
  • Login
  • US Flag 
11:16AM EDT


 

Airport Tracker/Info


-or-


 

Live Flight TrackerFlight Track Log ✈ DAL6231 ✈ 26-May-2013 ✈ KLGA - CYHZ

Flight Track Log - Related Links

Times and Time Zones

All times are in EDT time to prevent confusion due to time zone crossing. See the DAL6231 flight status page for this flight to view local times or setup timezone preferences in your user account.

Time Position Orientation Groundspeed Altitude Reporting Facility
EDT Latitude Longitude Course Direction KTS MPH feet Rate Location/Type
07:39PM 40.8000 -73.8500 38° Northeast 158 182 1,600  Level New York TRACON
07:41PM 40.8944 -73.7525 38° Northeast 232 267 6,100 2,400 Climbing Boston Center
07:42PM 40.9328 -73.6653 60° Northeast 251 289 9,100 2,700 Climbing Boston Center
07:43PM 40.9694 -73.5644 64° Northeast 263 303 11,600 2,700 Climbing Boston Center
07:44PM 41.0078 -73.4689 62° Northeast 277 319 14,500 2,220 Climbing Boston Center
07:45PM 41.0667 -73.4147 35° Northeast 277 319 16,100 1,500 Climbing Boston Center
07:46PM 41.1483 -73.3442 33° Northeast 307 353 17,500 1,200 Climbing Boston Center
07:47PM 41.2303 -73.2736 33° Northeast 328 377 18,600 1,260 Climbing Boston Center
07:48PM 41.3142 -73.1972 34° Northeast 350 403 20,100 1,500 Climbing Boston Center
07:49PM 41.3775 -73.0819 54° Northeast 370 426 21,700 1,380 Climbing Boston Center
07:50PM 41.4425 -72.9578 55° Northeast 388 447 22,900 1,080 Climbing Boston Center
07:51PM 41.5036 -72.8253 58° Northeast 400 460 23,900 1,020 Climbing Boston Center
07:52PM 41.5686 -72.6925 57° Northeast 418 481 25,000 1,020 Climbing Boston Center
07:53PM 41.6292 -72.5483 61° Northeast 433 498 26,000 960 Climbing Boston Center
07:54PM 41.6939 -72.4011 59° Northeast 444 511 27,000 960 Climbing Boston Center
07:55PM 41.7564 -72.2536 60° Northeast 444 511 28,000 960 Climbing Boston Center
07:56PM 41.8206 -72.1031 60° Northeast 450 518 29,000 960 Climbing Boston Center
07:57PM 41.8844 -71.9494 61° Northeast 455 524 30,000 960 Climbing Boston Center
07:58PM 41.9464 -71.7981 61° Northeast 455 524 31,000 1,020 Climbing Boston Center
07:59PM 42.0100 -71.6522 60° Northeast 455 524 32,100 960 Climbing Boston Center
08:00PM 42.0756 -71.5031 59° Northeast 455 524 33,000 900 Climbing Boston Center
08:01PM 42.1347 -71.3594 61° Northeast 448 516 34,000 780 Climbing Boston Center
08:02PM 42.1958 -71.2128 61° Northeast 448 516 34,600 420 Climbing Boston Center
08:03PM 42.2567 -71.0656 61° Northeast 443 510 34,900 300 Climbing Boston Center
08:04PM 42.3192 -70.9097 61° Northeast 449 517 35,200 300 Climbing Boston Center
08:05PM 42.3817 -70.7508 62° Northeast 462 532 35,600 360 Climbing Boston Center
08:06PM 42.4436 -70.5917 62° Northeast 469 540 36,000 420 Climbing Boston Center
08:07PM 42.5097 -70.4347 60° Northeast 475 547 36,500 480 Climbing Boston Center
08:08PM 42.5756 -70.2719 61° Northeast 475 547 37,000 240 Climbing Boston Center
08:09PM 42.6369 -70.1089 63° Northeast 481 554 37,000  Level Boston Center
08:10PM 42.7025 -69.9511 60° Northeast 481 554 37,000  Level Boston Center
08:11PM 42.7633 -69.7900 63° Northeast 481 554 37,000  Level Boston Center
08:12PM 42.8264 -69.6289 62° Northeast 481 554 37,000  Level Boston Center
08:13PM 42.8908 -69.4614 62° Northeast 481 554 37,000  Level Boston Center
08:14PM 42.9553 -69.2967 62° Northeast 481 554 37,000  Level Boston Center
08:15PM 43.0150 -69.1317 64° Northeast 481 554 37,000  Level Boston Center
08:16PM 43.0731 -68.9750 63° Northeast 475 547 37,000  Level Boston Center
08:17PM 43.1267 -68.8267 64° Northeast 480 552 37,000  Level Boston Center
08:18PM 43.1842 -68.6667 64° Northeast 480 552 37,000  Level Boston Center
08:19PM 43.2511 -68.4858 63° Northeast 474 545 37,000  Level Boston Center
08:20PM 43.3097 -68.3222 64° Northeast 480 552 37,000  Level Boston Center
08:21PM 43.3683 -68.1581 64° Northeast 475 547 37,000  Level Boston Center
08:22PM 43.4247 -67.9911 65° Northeast 475 547 37,000  Level Boston Center
08:23PM 43.4808 -67.8294 64° Northeast 475 547 37,000  Level Boston Center
08:24PM 43.5386 -67.6617 65° Northeast 480 552 37,000  Level Boston Center
08:25PM 43.5964 -67.5022 63° Northeast 475 547 37,000 -540 Level Boston Center
08:26PM 43.6539 -67.3367 64° Northeast 475 547 36,000 -540 Descending Boston Center
08:27PM 43.7089 -67.1739 65° Northeast 475 547 36,000  Level Boston Center
08:27PM 43.7167 -67.1000 82° East 480 552 36,000  Level Moncton Center
08:28PM 43.7667 -66.9500 65° Northeast 480 552 36,000  Level Moncton Center
08:29PM 43.8333 -66.7833 61° Northeast 480 552 36,000  Level Moncton Center
08:30PM 43.8833 -66.6000 69° East 480 552 36,000  Level Moncton Center
08:31PM 43.9333 -66.4333 67° East 480 552 36,000  Level Moncton Center
08:32PM 44.0000 -66.2500 63° Northeast 480 552 36,000  Level Moncton Center
08:33PM 44.0500 -66.1000 65° Northeast 480 552 36,000  Level Moncton Center
08:34PM 44.1167 -65.9333 61° Northeast 480 552 36,000 -420 Level Moncton Center
08:35PM 44.1667 -65.7500 69° East 480 552 35,200 -1,200 Descending Moncton Center
08:36PM 44.2167 -65.5833 67° East 480 552 33,600 -1,800 Descending Moncton Center
08:37PM 44.2833 -65.4167 61° Northeast 490 564 31,600 -2,160 Descending Moncton Center
08:38PM 44.3333 -65.2333 69° East 500 575 29,300 -2,160 Descending Moncton Center
08:39PM 44.3833 -65.0833 65° Northeast 480 552 27,300 -2,100 Descending Moncton Center
08:40PM 44.4333 -64.9167 67° East 470 541 25,100 -2,340 Descending Moncton Center
08:41PM 44.4833 -64.7500 67° East 450 518 22,700 -2,400 Descending Moncton Center
08:42PM 44.5333 -64.6000 65° Northeast 430 495 20,400 -2,400 Descending Moncton Center
08:43PM 44.5833 -64.4500 65° Northeast 410 472 17,900 -2,400 Descending Moncton Center
08:44PM 44.6167 -64.3000 73° East 390 449 15,700 -2,400 Descending Moncton Center
08:45PM 44.6667 -64.1667 62° Northeast 380 437 13,200 -1,800 Descending Moncton Center
08:46PM 44.7333 -64.0667 47° Northeast 350 403 12,100 -1,440 Descending Moncton Center
08:47PM 44.7833 -63.9667 55° Northeast 320 368 10,400 -1,800 Descending Moncton Center
08:48PM 44.8333 -63.8833 50° Northeast 310 357 8,600 -1,740 Descending Moncton Center
08:49PM 44.8833 -63.7833 55° Northeast 300 345 7,000 -1,740 Descending Moncton Center
08:50PM 44.9333 -63.6833 55° Northeast 290 334 5,200 -1,800 Descending Moncton Center
08:51PM 44.9667 -63.6000 60° Northeast 290 334 3,500 -1,440 Descending Moncton Center
08:52PM 45.0167 -63.5000 55° Northeast 280 322 2,400 -600 Descending Moncton Center
08:53PM 45.0500 -63.4333 55° Northeast 200 230 2,400  Level Moncton Center
08:54PM 45.0167 -63.3500 119° Southeast 150 173 2,400  Level Moncton Center
08:55PM 44.9833 -63.3833 215° Southwest 150 173 2,400 -60 Level Moncton Center
08:56PM 44.9500 -63.4000 199° South 150 173 2,300 -360 Descending Moncton Center
08:57PM 44.9167 -63.4500 227° Southwest 110 127 1,700 -600 Descending Moncton Center
08:58PM 44.9000 -63.4833 235° Southwest 110 127 1,100 -600 Descending Moncton Center